Time;durP1;ratioP1;P1;durP2;ratioP2;P2;SDS_P1;SDS_P2;PMS_P1;PMS_P2;Temp;Humidity;BMP_temperature;BMP_pressure;BME280_temperature;BME280_humidity;BME280_pressure;Samples;Min_cycle;Max_cycle;Signal;HPM_P1;HPM_P2
2022/07/08 00:00:08;;;;;;;6.65;1.17;;;;;;;;;;4982288;28;20046;-62
2022/07/08 00:02:35;;;;;;;1.77;0.88;;;;;;;;;;4988169;28;20134;-62
2022/07/08 00:05:02;;;;;;;1.90;0.73;;;;;;;;;;4967975;28;20042;-62
2022/07/08 00:07:28;;;;;;;4.75;1.00;;;;;;;;;;4971372;28;20078;-62
2022/07/08 00:09:55;;;;;;;2.38;0.80;;;;;;;;;;4967111;28;20070;-62
2022/07/08 00:12:21;;;;;;;2.40;0.70;;;;;;;;;;4971758;28;20053;-62
2022/07/08 00:14:49;;;;;;;4.28;0.93;;;;;;;;;;4968398;28;20391;-63
2022/07/08 00:17:16;;;;;;;3.92;0.90;;;;;;;;;;4991214;28;20049;-62
2022/07/08 00:19:43;;;;;;;5.40;1.20;;;;;;;;;;4990571;28;20290;-62
2022/07/08 00:22:09;;;;;;;6.45;0.90;;;;;;;;;;4982976;28;20054;-63
2022/07/08 00:24:36;;;;;;;3.42;0.80;;;;;;;;;;4990283;28;20049;-62
2022/07/08 00:27:02;;;;;;;5.68;1.08;;;;;;;;;;4975101;28;20046;-63
2022/07/08 00:29:29;;;;;;;2.60;0.50;;;;;;;;;;4990412;28;20055;-62
2022/07/08 00:31:57;;;;;;;6.82;1.10;;;;;;;;;;4980888;28;20058;-63
2022/07/08 00:34:24;;;;;;;6.38;0.75;;;;;;;;;;4971306;28;20058;-62
2022/07/08 00:36:50;;;;;;;3.05;0.90;;;;;;;;;;4969560;28;20061;-63
2022/07/08 00:39:17;;;;;;;3.65;0.88;;;;;;;;;;4998151;28;20060;-63
2022/07/08 00:41:45;;;;;;;3.22;0.82;;;;;;;;;;5007735;28;20053;-63
2022/07/08 00:44:11;;;;;;;3.60;0.85;;;;;;;;;;4984500;28;20062;-63
2022/07/08 00:46:38;;;;;;;2.22;1.00;;;;;;;;;;4990348;28;20054;-63
2022/07/08 00:49:06;;;;;;;1.60;0.82;;;;;;;;;;4982557;28;20057;-63
2022/07/08 00:51:34;;;;;;;4.57;1.10;;;;;;;;;;4989504;28;20049;-63
2022/07/08 00:54:00;;;;;;;2.17;0.80;;;;;;;;;;4981444;28;20058;-63
2022/07/08 00:56:28;;;;;;;4.32;0.90;;;;;;;;;;4971066;28;20066;-63
2022/07/08 00:58:54;;;;;;;2.13;0.60;;;;;;;;;;4987095;28;20098;-63
2022/07/08 01:01:21;;;;;;;5.55;1.45;;;;;;;;;;4980967;28;20053;-63
2022/07/08 01:03:48;;;;;;;4.95;0.73;;;;;;;;;;4989952;28;20042;-63
2022/07/08 01:06:16;;;;;;;6.80;1.10;;;;;;;;;;4973094;28;20077;-63
2022/07/08 01:08:43;;;;;;;4.50;0.88;;;;;;;;;;4970462;28;20113;-63
2022/07/08 01:11:10;;;;;;;5.88;1.48;;;;;;;;;;4967851;28;20081;-63
2022/07/08 01:13:36;;;;;;;2.00;0.70;;;;;;;;;;4970998;28;20069;-63
2022/07/08 01:16:03;;;;;;;1.77;0.88;;;;;;;;;;4957913;28;20050;-63
2022/07/08 01:18:30;;;;;;;2.03;0.70;;;;;;;;;;4968804;28;20050;-63
2022/07/08 01:20:59;;;;;;;6.63;1.30;;;;;;;;;;4969624;28;20164;-64
2022/07/08 01:23:25;;;;;;;3.75;1.08;;;;;;;;;;4978145;28;20101;-63
2022/07/08 01:25:52;;;;;;;8.60;1.33;;;;;;;;;;4987183;28;20104;-63
2022/07/08 01:28:19;;;;;;;3.65;1.17;;;;;;;;;;4997907;28;20077;-63
2022/07/08 01:30:46;;;;;;;1.98;0.80;;;;;;;;;;5009917;28;20050;-63
2022/07/08 01:33:12;;;;;;;3.40;1.05;;;;;;;;;;5003168;28;20104;-63
2022/07/08 01:35:39;;;;;;;4.72;1.05;;;;;;;;;;5009480;28;20061;-63
2022/07/08 01:38:07;;;;;;;4.60;0.80;;;;;;;;;;4996912;28;20035;-62
2022/07/08 01:40:33;;;;;;;2.40;0.82;;;;;;;;;;4989364;28;20077;-62
2022/07/08 01:43:00;;;;;;;4.75;0.80;;;;;;;;;;4996668;28;20647;-62
2022/07/08 01:45:26;;;;;;;1.90;0.73;;;;;;;;;;5009230;28;20057;-63
2022/07/08 01:47:53;;;;;;;4.13;0.80;;;;;;;;;;5000926;28;20136;-62
2022/07/08 01:50:20;;;;;;;2.45;0.80;;;;;;;;;;4990334;28;20051;-63
2022/07/08 01:52:46;;;;;;;4.90;1.25;;;;;;;;;;4986754;28;20046;-63
2022/07/08 01:55:15;;;;;;;4.63;0.80;;;;;;;;;;4988816;28;20047;-63
2022/07/08 01:57:41;;;;;;;8.98;0.95;;;;;;;;;;4989855;28;20231;-64
2022/07/08 02:00:08;;;;;;;2.20;0.63;;;;;;;;;;5001035;28;20109;-64
2022/07/08 02:02:35;;;;;;;4.68;1.05;;;;;;;;;;5009188;28;20046;-63
2022/07/08 02:05:01;;;;;;;2.28;0.82;;;;;;;;;;5002996;28;20077;-63
2022/07/08 02:07:28;;;;;;;2.70;0.82;;;;;;;;;;5009128;28;20053;-63
2022/07/08 02:09:54;;;;;;;3.55;1.00;;;;;;;;;;4994878;28;20145;-63
2022/07/08 02:12:23;;;;;;;2.63;0.80;;;;;;;;;;4992626;28;20061;-63
2022/07/08 02:14:51;;;;;;;2.60;0.70;;;;;;;;;;4984343;28;20065;-63
2022/07/08 02:17:19;;;;;;;5.05;0.85;;;;;;;;;;4989585;28;20097;-63
2022/07/08 02:19:46;;;;;;;2.22;0.80;;;;;;;;;;4984756;28;20085;-62
2022/07/08 02:22:12;;;;;;;2.33;1.00;;;;;;;;;;4989064;28;20054;-63
2022/07/08 02:24:39;;;;;;;2.50;0.80;;;;;;;;;;4988374;28;20120;-63
2022/07/08 02:27:06;;;;;;;2.08;0.80;;;;;;;;;;4992413;28;20069;-63
2022/07/08 02:29:34;;;;;;;3.40;0.90;;;;;;;;;;4984390;28;20050;-63
2022/07/08 02:32:02;;;;;;;6.20;0.98;;;;;;;;;;4989041;28;20050;-63
2022/07/08 02:34:28;;;;;;;2.42;0.75;;;;;;;;;;4984883;28;20124;-63
2022/07/08 02:36:55;;;;;;;2.03;0.77;;;;;;;;;;5008477;28;20054;-63
2022/07/08 02:39:22;;;;;;;5.25;0.98;;;;;;;;;;5009270;28;20068;-63
2022/07/08 02:41:51;;;;;;;4.43;0.80;;;;;;;;;;4984639;28;20077;-63
2022/07/08 02:44:17;;;;;;;;;;;;;;;;;;4989579;28;20054;-62
2022/07/08 02:46:45;;;;;;;3.60;0.80;;;;;;;;;;4987565;28;19952;-63
2022/07/08 02:49:12;;;;;;;1.80;0.55;;;;;;;;;;4992180;28;20057;-63
2022/07/08 02:51:39;;;;;;;4.60;0.93;;;;;;;;;;4987757;28;20133;-63
2022/07/08 02:54:05;;;;;;;8.13;1.00;;;;;;;;;;4991893;28;20064;-63
2022/07/08 02:56:32;;;;;;;1.80;0.90;;;;;;;;;;4985831;28;20088;-63
2022/07/08 02:58:59;;;;;;;1.83;0.73;;;;;;;;;;4992191;28;20050;-63
2022/07/08 03:01:29;;;;;;;1.70;0.73;;;;;;;;;;4992181;28;20101;-63
2022/07/08 03:03:57;;;;;;;1.70;0.80;;;;;;;;;;4982919;28;20101;-63
2022/07/08 03:06:24;;;;;;;2.47;0.80;;;;;;;;;;4979091;28;20074;-63
2022/07/08 03:08:51;;;;;;;3.08;0.70;;;;;;;;;;4982172;28;20054;-63
2022/07/08 03:11:18;;;;;;;1.73;0.70;;;;;;;;;;4975130;28;20135;-63
2022/07/08 03:13:44;;;;;;;0.85;0.60;;;;;;;;;;4985252;28;20133;-63
2022/07/08 03:16:10;;;;;;;3.65;0.70;;;;;;;;;;4981645;28;20054;-63
2022/07/08 03:18:37;;;;;;;1.67;0.60;;;;;;;;;;4974069;28;20058;-63
2022/07/08 03:21:07;;;;;;;3.00;0.70;;;;;;;;;;4979679;28;20112;-63
2022/07/08 03:23:34;;;;;;;1.58;0.70;;;;;;;;;;4974879;28;20065;-63
2022/07/08 03:26:01;;;;;;;1.85;0.57;;;;;;;;;;4982084;28;20049;-63
2022/07/08 03:28:27;;;;;;;4.35;0.77;;;;;;;;;;4975535;28;20050;-63
2022/07/08 03:30:54;;;;;;;4.50;0.60;;;;;;;;;;4982439;28;20145;-63
2022/07/08 03:33:20;;;;;;;1.92;0.60;;;;;;;;;;4980733;28;20061;-63
2022/07/08 03:35:47;;;;;;;2.97;0.80;;;;;;;;;;4972588;28;20054;-63
2022/07/08 03:38:15;;;;;;;3.83;0.82;;;;;;;;;;4980712;28;20054;-63
2022/07/08 03:43:28;;;;;;;3.28;0.82;;;;;;;;;;4998883;28;20084;-63
2022/07/08 03:45:54;;;;;;;2.38;0.60;;;;;;;;;;4976071;28;20050;-63
2022/07/08 03:48:21;;;;;;;4.18;0.82;;;;;;;;;;4982167;28;20077;-63
2022/07/08 03:50:47;;;;;;;2.42;0.80;;;;;;;;;;4977742;28;20059;-63
2022/07/08 03:53:15;;;;;;;2.97;1.00;;;;;;;;;;4982769;28;20045;-63
2022/07/08 03:55:42;;;;;;;6.32;1.15;;;;;;;;;;4985083;28;20108;-63
2022/07/08 03:58:08;;;;;;;2.05;0.80;;;;;;;;;;4977525;28;20054;-63
2022/07/08 04:00:35;;;;;;;3.33;1.00;;;;;;;;;;4980572;28;20065;-62
2022/07/08 04:03:01;;;;;;;0.90;0.63;;;;;;;;;;4976797;28;20061;-63
2022/07/08 04:05:28;;;;;;;1.33;0.80;;;;;;;;;;4987923;28;20050;-63
2022/07/08 04:07:54;;;;;;;1.67;0.80;;;;;;;;;;4983065;28;20077;-63
2022/07/08 04:10:28;;;;;;;3.88;0.63;;;;;;;;;;5008455;28;20123;-63
2022/07/08 04:12:55;;;;;;;4.07;0.80;;;;;;;;;;4991875;28;20058;-63
2022/07/08 04:15:22;;;;;;;2.55;0.70;;;;;;;;;;4971730;28;20104;-62
2022/07/08 04:17:49;;;;;;;4.35;1.10;;;;;;;;;;4969561;28;20074;-63
2022/07/08 04:20:16;;;;;;;2.92;0.80;;;;;;;;;;4985121;28;20104;-63
2022/07/08 04:22:42;;;;;;;5.90;0.90;;;;;;;;;;4987312;28;20058;-63
2022/07/08 04:25:09;;;;;;;1.58;0.80;;;;;;;;;;4971498;28;20051;-63
2022/07/08 04:27:37;;;;;;;1.63;0.57;;;;;;;;;;4968184;28;20054;-63
2022/07/08 04:30:04;;;;;;;1.67;0.75;;;;;;;;;;4968394;28;20050;-63
2022/07/08 04:32:31;;;;;;;3.00;1.00;;;;;;;;;;4987685;28;20141;-63
2022/07/08 04:34:59;;;;;;;2.25;0.93;;;;;;;;;;4981571;28;20054;-63
2022/07/08 04:37:26;;;;;;;1.33;0.60;;;;;;;;;;5002471;28;20129;-63
2022/07/08 04:39:53;;;;;;;5.25;0.70;;;;;;;;;;4987632;28;20070;-63
2022/07/08 04:42:19;;;;;;;3.90;1.02;;;;;;;;;;4967309;28;20129;-63
2022/07/08 04:44:47;;;;;;;1.83;0.70;;;;;;;;;;4968000;28;20074;-63
2022/07/08 04:47:14;;;;;;;6.05;0.80;;;;;;;;;;4963388;28;20062;-63
2022/07/08 04:49:40;;;;;;;2.42;0.70;;;;;;;;;;4967626;28;20055;-62
2022/07/08 04:52:07;;;;;;;1.08;0.60;;;;;;;;;;4964851;28;20051;-62
2022/07/08 04:54:34;;;;;;;2.33;0.85;;;;;;;;;;4986872;28;20074;-63
2022/07/08 04:57:01;;;;;;;2.40;0.68;;;;;;;;;;4986915;28;20086;-63
2022/07/08 04:59:27;;;;;;;4.95;1.30;;;;;;;;;;4965955;28;20069;-63
2022/07/08 05:01:55;;;;;;;2.13;0.88;;;;;;;;;;4976827;28;20046;-62
2022/07/08 05:04:22;;;;;;;4.82;1.15;;;;;;;;;;4972439;28;20054;-63
2022/07/08 05:06:49;;;;;;;4.22;1.15;;;;;;;;;;4986655;28;20069;-63
2022/07/08 05:09:15;;;;;;;1.70;0.70;;;;;;;;;;4974887;28;20046;-63
2022/07/08 05:11:42;;;;;;;3.28;0.95;;;;;;;;;;4982243;28;20054;-63
2022/07/08 05:14:13;;;;;;;5.85;1.05;;;;;;;;;;4983035;28;20174;-63
2022/07/08 05:16:39;;;;;;;7.95;1.77;;;;;;;;;;4980601;28;20051;-63
2022/07/08 05:19:07;;;;;;;4.30;1.05;;;;;;;;;;4984972;28;20074;-63
2022/07/08 05:21:36;;;;;;;3.53;1.05;;;;;;;;;;4977902;28;20059;-62
2022/07/08 05:24:03;;;;;;;4.80;0.93;;;;;;;;;;4964847;28;20054;-63
2022/07/08 05:26:29;;;;;;;1.63;0.80;;;;;;;;;;4952031;28;20167;-63
2022/07/08 05:28:56;;;;;;;3.20;0.90;;;;;;;;;;4959318;28;20079;-63
2022/07/08 05:31:23;;;;;;;7.07;1.95;;;;;;;;;;4952448;28;20122;-63
2022/07/08 05:33:50;;;;;;;2.92;1.23;;;;;;;;;;4962477;28;20106;-63
2022/07/08 05:36:18;;;;;;;10.02;1.98;;;;;;;;;;4960974;28;20053;-63
2022/07/08 05:38:45;;;;;;;1.50;0.73;;;;;;;;;;4975912;28;20047;-63
2022/07/08 05:41:11;;;;;;;3.10;0.85;;;;;;;;;;4959776;28;20055;-63
2022/07/08 05:43:38;;;;;;;2.90;0.93;;;;;;;;;;4958215;28;20059;-63
2022/07/08 05:46:05;;;;;;;2.28;1.13;;;;;;;;;;4961665;28;20134;-63
2022/07/08 05:48:31;;;;;;;4.82;1.27;;;;;;;;;;4952464;28;20059;-63
2022/07/08 05:50:58;;;;;;;4.53;1.00;;;;;;;;;;4957444;28;20059;-63
2022/07/08 05:53:26;;;;;;;7.65;1.23;;;;;;;;;;4956385;28;20074;-63
2022/07/08 05:55:54;;;;;;;1.77;0.85;;;;;;;;;;4962838;28;20050;-62
2022/07/08 05:58:21;;;;;;;7.78;1.13;;;;;;;;;;4959442;28;20058;-63
2022/07/08 06:00:47;;;;;;;8.55;2.80;;;;;;;;;;4950287;28;20059;-62
2022/07/08 06:03:14;;;;;;;7.18;2.35;;;;;;;;;;4964806;28;20082;-63
2022/07/08 06:05:40;;;;;;;4.50;1.20;;;;;;;;;;4960872;28;20087;-65
2022/07/08 06:08:07;;;;;;;8.65;1.27;;;;;;;;;;4969830;28;20148;-64
2022/07/08 06:10:36;;;;;;;7.28;1.38;;;;;;;;;;4962485;28;20080;-63
2022/07/08 06:13:02;;;;;;;4.35;1.13;;;;;;;;;;4950342;28;20079;-63
2022/07/08 06:15:29;;;;;;;10.82;1.33;;;;;;;;;;4949834;29;20349;-63
2022/07/08 06:17:56;;;;;;;5.65;1.20;;;;;;;;;;4960855;28;20058;-62
2022/07/08 06:20:23;;;;;;;5.35;1.08;;;;;;;;;;4970106;28;20058;-63
2022/07/08 06:22:50;;;;;;;11.63;1.15;;;;;;;;;;4992066;28;20054;-63
2022/07/08 06:25:17;;;;;;;5.80;1.40;;;;;;;;;;5007959;28;20137;-63
2022/07/08 06:27:45;;;;;;;2.75;1.00;;;;;;;;;;5001924;28;20054;-63
2022/07/08 06:30:12;;;;;;;6.03;1.10;;;;;;;;;;5008306;28;20084;-63
2022/07/08 06:32:39;;;;;;;5.70;1.20;;;;;;;;;;4994351;28;20069;-63
2022/07/08 06:35:06;;;;;;;4.18;1.23;;;;;;;;;;5021159;28;20100;-63
2022/07/08 06:37:33;;;;;;;11.90;1.63;;;;;;;;;;5016879;28;20092;-62
2022/07/08 06:40:00;;;;;;;3.95;1.02;;;;;;;;;;4989229;28;20137;-63
2022/07/08 06:42:26;;;;;;;3.90;0.98;;;;;;;;;;4984379;28;20100;-63
2022/07/08 06:44:55;;;;;;;8.45;1.23;;;;;;;;;;5020965;28;20047;-64
2022/07/08 06:47:22;;;;;;;7.47;1.17;;;;;;;;;;4983456;28;20058;-63
2022/07/08 06:49:49;;;;;;;7.85;1.33;;;;;;;;;;5021766;28;20064;-62
2022/07/08 06:52:17;;;;;;;7.72;1.20;;;;;;;;;;5020940;28;20057;-63
2022/07/08 06:54:43;;;;;;;8.68;1.40;;;;;;;;;;5014252;28;20077;-63
2022/07/08 06:57:10;;;;;;;5.40;1.20;;;;;;;;;;5021730;28;20050;-63
2022/07/08 06:59:37;;;;;;;3.55;1.08;;;;;;;;;;4999829;28;20053;-63
2022/07/08 07:02:05;;;;;;;3.13;1.00;;;;;;;;;;4972393;28;20058;-63
2022/07/08 07:04:32;;;;;;;6.07;1.00;;;;;;;;;;4977363;28;20536;-63
2022/07/08 07:06:58;;;;;;;4.35;1.15;;;;;;;;;;4988620;28;20054;-63
2022/07/08 07:09:25;;;;;;;12.30;1.35;;;;;;;;;;4992960;28;20096;-63
2022/07/08 07:11:52;;;;;;;5.15;1.10;;;;;;;;;;5008058;28;20046;-63
2022/07/08 07:14:19;;;;;;;10.38;1.30;;;;;;;;;;4994229;28;20057;-63
2022/07/08 07:16:45;;;;;;;4.95;0.98;;;;;;;;;;4988100;28;20042;-63
2022/07/08 07:19:13;;;;;;;10.07;1.08;;;;;;;;;;4982779;28;20047;-64
2022/07/08 07:21:40;;;;;;;8.30;1.23;;;;;;;;;;4988239;28;20148;-63
2022/07/08 07:24:07;;;;;;;6.60;1.27;;;;;;;;;;5014194;28;20078;-63
2022/07/08 07:26:33;;;;;;;5.15;0.95;;;;;;;;;;4978767;28;21477;-63
2022/07/08 07:29:02;;;;;;;12.02;1.35;;;;;;;;;;4983302;28;20058;-63
2022/07/08 07:31:28;;;;;;;10.27;1.50;;;;;;;;;;5007877;28;20081;-63
2022/07/08 07:33:55;;;;;;;6.93;1.13;;;;;;;;;;5007477;28;20167;-64
2022/07/08 07:36:23;;;;;;;14.10;1.38;;;;;;;;;;5001326;28;20062;-63
2022/07/08 07:38:49;;;;;;;4.80;0.85;;;;;;;;;;4983453;28;20059;-63
2022/07/08 07:41:16;;;;;;;3.13;0.90;;;;;;;;;;4980474;28;20054;-63
2022/07/08 07:43:42;;;;;;;7.82;1.00;;;;;;;;;;4987968;28;20054;-63
2022/07/08 07:46:09;;;;;;;4.90;1.05;;;;;;;;;;4996508;28;20153;-63
2022/07/08 07:48:36;;;;;;;4.75;1.27;;;;;;;;;;5007472;28;20057;-63
2022/07/08 07:51:02;;;;;;;6.43;1.10;;;;;;;;;;4980315;28;20054;-62
2022/07/08 07:53:30;;;;;;;3.88;1.10;;;;;;;;;;4975113;28;20065;-63
2022/07/08 07:55:58;;;;;;;6.95;0.98;;;;;;;;;;4989997;28;20058;-63
2022/07/08 07:58:25;;;;;;;6.65;1.20;;;;;;;;;;5007607;28;20073;-63
2022/07/08 08:00:52;;;;;;;10.23;1.05;;;;;;;;;;4994521;28;20054;-63
2022/07/08 08:03:19;;;;;;;5.03;1.08;;;;;;;;;;4987464;28;20064;-63
2022/07/08 08:05:45;;;;;;;4.18;1.08;;;;;;;;;;4981290;28;20060;-63
2022/07/08 08:08:12;;;;;;;5.75;1.20;;;;;;;;;;5007542;28;20062;-63
2022/07/08 08:10:41;;;;;;;6.93;1.23;;;;;;;;;;5000666;28;20111;-63
2022/07/08 08:13:08;;;;;;;6.15;1.15;;;;;;;;;;4965776;28;20058;-63
2022/07/08 08:15:35;;;;;;;3.05;0.80;;;;;;;;;;4967606;28;20062;-63
2022/07/08 08:18:02;;;;;;;6.97;1.30;;;;;;;;;;4975358;28;20050;-63
2022/07/08 08:20:29;;;;;;;6.78;1.10;;;;;;;;;;4987747;28;20137;-63
2022/07/08 08:22:56;;;;;;;3.80;0.90;;;;;;;;;;4973998;28;20054;-62
2022/07/08 08:25:22;;;;;;;10.85;1.30;;;;;;;;;;4968427;28;20055;-63
2022/07/08 08:27:50;;;;;;;7.03;1.40;;;;;;;;;;4964430;28;20137;-63
2022/07/08 08:30:17;;;;;;;4.38;0.77;;;;;;;;;;4967988;28;20065;-63
2022/07/08 08:32:44;;;;;;;5.20;1.10;;;;;;;;;;4984142;28;20058;-62
2022/07/08 08:35:11;;;;;;;4.97;0.90;;;;;;;;;;4963678;28;20113;-63
2022/07/08 08:37:37;;;;;;;6.38;1.20;;;;;;;;;;4976171;28;20054;-63
2022/07/08 08:40:04;;;;;;;8.02;1.17;;;;;;;;;;4981977;28;20106;-63
2022/07/08 08:42:31;;;;;;;6.32;1.20;;;;;;;;;;4971718;28;20046;-63
2022/07/08 08:44:59;;;;;;;5.28;0.90;;;;;;;;;;4969480;28;20153;-63
2022/07/08 08:47:28;;;;;;;3.25;0.90;;;;;;;;;;4991408;28;20054;-63
2022/07/08 08:49:55;;;;;;;3.38;1.00;;;;;;;;;;4987826;28;20054;-63
2022/07/08 08:52:23;;;;;;;8.53;1.50;;;;;;;;;;5002748;28;20085;-62
2022/07/08 08:54:50;;;;;;;7.32;1.30;;;;;;;;;;4991781;28;20150;-63
2022/07/08 08:57:17;;;;;;;6.00;1.15;;;;;;;;;;4982499;28;20065;-63
2022/07/08 08:59:45;;;;;;;9.38;1.20;;;;;;;;;;4990321;28;20065;-63
2022/07/08 09:02:13;;;;;;;10.15;1.80;;;;;;;;;;4982280;28;20054;-62
2022/07/08 09:04:40;;;;;;;6.63;1.30;;;;;;;;;;4990651;28;20137;-63
2022/07/08 09:07:07;;;;;;;9.23;1.40;;;;;;;;;;4983524;28;20066;-63
2022/07/08 09:09:33;;;;;;;8.25;1.00;;;;;;;;;;4971963;28;20055;-62
2022/07/08 09:12:15;;;;;;;6.40;1.40;;;;;;;;;;4971236;28;20070;-62
2022/07/08 09:14:50;;;;;;;6.13;1.20;;;;;;;;;;4963435;28;20077;-62
2022/07/08 09:17:18;;;;;;;6.63;1.23;;;;;;;;;;4990298;28;20058;-63
2022/07/08 09:19:45;;;;;;;10.55;1.30;;;;;;;;;;4983421;28;20046;-63
2022/07/08 09:22:12;;;;;;;7.85;1.10;;;;;;;;;;4979579;28;20059;-62
2022/07/08 09:24:39;;;;;;;2.88;0.93;;;;;;;;;;4965752;28;20058;-63
2022/07/08 09:27:06;;;;;;;10.17;1.53;;;;;;;;;;4969055;28;20158;-63
2022/07/08 09:29:33;;;;;;;3.25;1.20;;;;;;;;;;4965959;28;20095;-63
2022/07/08 09:32:11;;;;;;;6.25;1.27;;;;;;;;;;4971069;28;20058;-62
2022/07/08 09:34:40;;;;;;;5.80;1.48;;;;;;;;;;4959135;28;20162;-62
2022/07/08 09:37:11;;;;;;;5.35;1.40;;;;;;;;;;4948948;28;20082;-63
2022/07/08 09:39:37;;;;;;;6.18;1.30;;;;;;;;;;4968714;28;20065;-63
2022/07/08 09:42:06;;;;;;;4.47;0.90;;;;;;;;;;4990816;28;20064;-62
2022/07/08 09:44:33;;;;;;;6.65;1.08;;;;;;;;;;4981998;28;20058;-63
2022/07/08 09:46:59;;;;;;;2.03;0.95;;;;;;;;;;4969548;28;20062;-63
2022/07/08 09:49:30;;;;;;;3.25;0.80;;;;;;;;;;4967452;28;20062;-63
2022/07/08 09:51:58;;;;;;;4.13;0.93;;;;;;;;;;4951269;29;20174;-63
2022/07/08 09:54:25;;;;;;;2.35;0.85;;;;;;;;;;4951079;28;20085;-64
2022/07/08 09:56:59;;;;;;;4.05;0.80;;;;;;;;;;4946065;28;20063;-63
2022/07/08 09:59:26;;;;;;;5.57;1.08;;;;;;;;;;4951329;28;20070;-64
2022/07/08 10:01:53;;;;;;;4.30;1.13;;;;;;;;;;4962836;28;20059;-63
2022/07/08 10:04:22;;;;;;;6.53;1.00;;;;;;;;;;4970957;28;20058;-63
2022/07/08 10:06:48;;;;;;;3.50;1.13;;;;;;;;;;4966510;28;20133;-63
2022/07/08 10:09:16;;;;;;;9.02;1.10;;;;;;;;;;4970164;28;20058;-63
2022/07/08 10:11:47;;;;;;;9.25;1.33;;;;;;;;;;4965347;28;20055;-63
2022/07/08 10:14:13;;;;;;;2.95;1.10;;;;;;;;;;4970119;28;20062;-63
2022/07/08 10:16:41;;;;;;;5.18;0.90;;;;;;;;;;4964669;28;20050;-63
2022/07/08 10:19:09;;;;;;;1.35;0.70;;;;;;;;;;4970761;28;20129;-63
2022/07/08 10:21:36;;;;;;;4.45;0.95;;;;;;;;;;4971636;28;20057;-63
2022/07/08 10:24:03;;;;;;;4.80;1.02;;;;;;;;;;5006208;28;20057;-63
2022/07/08 10:26:32;;;;;;;3.05;0.77;;;;;;;;;;4980125;28;20074;-63
2022/07/08 10:29:04;;;;;;;7.00;1.15;;;;;;;;;;4971206;28;20130;-63
2022/07/08 10:31:31;;;;;;;13.13;1.63;;;;;;;;;;4966265;28;20085;-63
2022/07/08 10:34:00;;;;;;;2.38;0.80;;;;;;;;;;4970989;28;20066;-63
2022/07/08 10:36:27;;;;;;;4.85;1.10;;;;;;;;;;4965896;28;20078;-63
2022/07/08 10:38:55;;;;;;;7.68;1.25;;;;;;;;;;4978935;28;20065;-63
2022/07/08 10:41:23;;;;;;;;;;;;;;;;;;4970280;28;20284;-63
2022/07/08 10:43:52;;;;;;;3.47;0.77;;;;;;;;;;4962351;28;19973;-62
2022/07/08 10:46:18;;;;;;;;;;;;;;;;;;4969374;28;20043;-62
2022/07/08 10:48:49;;;;;;;6.03;1.02;;;;;;;;;;4964880;28;20029;-63
2022/07/08 10:51:37;;;;;;;1.42;0.75;;;;;;;;;;4985346;28;20055;-63
2022/07/08 10:54:05;;;;;;;4.50;1.30;;;;;;;;;;4958792;28;20058;-62
2022/07/08 10:56:49;;;;;;;9.87;1.97;;;;;;;;;;4967536;28;20054;-62
2022/07/08 10:59:18;;;;;;;6.60;1.02;;;;;;;;;;4981125;28;20079;-63
2022/07/08 11:01:45;;;;;;;3.40;1.00;;;;;;;;;;4968083;28;20059;-63
2022/07/08 11:04:22;;;;;;;2.78;1.02;;;;;;;;;;4964138;28;20161;-63
2022/07/08 11:06:48;;;;;;;11.05;1.55;;;;;;;;;;4965276;28;20066;-63
2022/07/08 11:09:16;;;;;;;3.05;1.08;;;;;;;;;;4958169;28;20078;-63
2022/07/08 11:11:44;;;;;;;4.50;1.23;;;;;;;;;;4961348;28;20109;-63
2022/07/08 11:14:12;;;;;;;7.05;1.13;;;;;;;;;;4958547;28;20058;-63
2022/07/08 11:16:40;;;;;;;7.63;1.50;;;;;;;;;;4967582;28;20054;-63
2022/07/08 11:19:07;;;;;;;7.47;1.27;;;;;;;;;;4959756;28;20055;-63
2022/07/08 11:21:34;;;;;;;6.50;1.15;;;;;;;;;;4988433;28;20054;-63
2022/07/08 11:24:00;;;;;;;6.85;1.30;;;;;;;;;;4982865;28;20070;-63
2022/07/08 11:26:27;;;;;;;7.18;1.58;;;;;;;;;;4988087;28;20097;-63
2022/07/08 11:28:53;;;;;;;8.50;2.05;;;;;;;;;;4983709;28;20064;-63
2022/07/08 11:31:24;;;;;;;7.53;0.90;;;;;;;;;;4987770;28;20130;-63
2022/07/08 11:33:52;;;;;;;7.13;1.50;;;;;;;;;;4984799;28;20042;-63
2022/07/08 11:36:19;;;;;;;7.57;1.63;;;;;;;;;;5008281;28;20053;-63
2022/07/08 11:38:47;;;;;;;9.43;1.90;;;;;;;;;;5001681;28;20054;-63
2022/07/08 11:41:14;;;;;;;9.68;1.65;;;;;;;;;;4988466;28;20051;-63
2022/07/08 11:43:41;;;;;;;6.25;1.17;;;;;;;;;;4989038;28;20077;-63
2022/07/08 11:46:15;;;;;;;6.78;1.42;;;;;;;;;;5000562;28;20100;-63
2022/07/08 11:48:41;;;;;;;6.30;1.35;;;;;;;;;;5007544;28;20061;-63
2022/07/08 11:51:11;;;;;;;5.13;1.20;;;;;;;;;;5001806;28;20096;-63
2022/07/08 11:53:38;;;;;;;7.60;1.10;;;;;;;;;;4999685;28;20046;-64
2022/07/08 11:56:05;;;;;;;4.13;1.02;;;;;;;;;;4996583;28;20054;-63
2022/07/08 11:58:31;;;;;;;10.43;1.40;;;;;;;;;;5009520;28;20097;-64
2022/07/08 12:00:58;;;;;;;4.07;1.15;;;;;;;;;;4986536;28;20042;-64
2022/07/08 12:03:26;;;;;;;4.40;1.02;;;;;;;;;;4968134;28;20095;-63
2022/07/08 12:05:53;;;;;;;7.53;1.60;;;;;;;;;;4962958;28;20059;-63
2022/07/08 12:08:22;;;;;;;9.63;1.48;;;;;;;;;;4967756;28;20051;-63
2022/07/08 12:10:49;;;;;;;4.68;1.27;;;;;;;;;;4963847;28;20055;-63
2022/07/08 12:13:16;;;;;;;6.28;1.23;;;;;;;;;;4967500;28;20166;-63
2022/07/08 12:15:42;;;;;;;6.88;1.48;;;;;;;;;;4964480;28;20047;-63
2022/07/08 12:18:09;;;;;;;5.50;1.40;;;;;;;;;;4968537;28;20047;-64
2022/07/08 12:20:36;;;;;;;4.82;1.48;;;;;;;;;;4965568;28;20054;-63
2022/07/08 12:23:03;;;;;;;8.10;1.50;;;;;;;;;;5019590;28;20057;-63
2022/07/08 12:25:46;;;;;;;3.30;0.98;;;;;;;;;;5013988;28;20096;-63
2022/07/08 12:28:12;;;;;;;2.70;1.15;;;;;;;;;;4967717;28;20054;-64
2022/07/08 12:30:41;;;;;;;7.38;1.40;;;;;;;;;;4967690;28;20058;-64
2022/07/08 12:33:08;;;;;;;4.95;1.13;;;;;;;;;;5003636;28;20053;-63
2022/07/08 12:35:34;;;;;;;5.63;1.30;;;;;;;;;;5006180;28;20054;-63
2022/07/08 12:38:05;;;;;;;7.80;1.63;;;;;;;;;;4965928;28;20055;-63
2022/07/08 12:40:38;;;;;;;8.63;1.50;;;;;;;;;;4967636;28;20062;-63
2022/07/08 12:43:06;;;;;;;6.55;1.52;;;;;;;;;;4986895;28;20046;-63
2022/07/08 12:45:32;;;;;;;3.97;1.10;;;;;;;;;;4986668;28;20093;-64
2022/07/08 12:48:00;;;;;;;3.47;1.35;;;;;;;;;;4994555;28;20065;-63
2022/07/08 12:50:28;;;;;;;6.88;1.35;;;;;;;;;;5007478;28;20052;-64
2022/07/08 12:52:54;;;;;;;;;;;;;;;;;;4999084;28;20054;-63
2022/07/08 12:55:21;;;;;;;6.35;1.30;;;;;;;;;;4987335;28;19926;-63
2022/07/08 12:57:49;;;;;;;6.53;1.30;;;;;;;;;;5017930;28;20050;-63
2022/07/08 13:00:17;;;;;;;5.25;1.38;;;;;;;;;;5007764;28;20050;-63
2022/07/08 13:02:44;;;;;;;10.77;1.60;;;;;;;;;;5016573;28;20120;-63
2022/07/08 13:05:11;;;;;;;5.85;1.25;;;;;;;;;;5006831;28;20064;-63
2022/07/08 13:07:38;;;;;;;5.07;1.20;;;;;;;;;;4993007;28;20055;-63
2022/07/08 13:10:05;;;;;;;2.95;1.00;;;;;;;;;;4967957;28;20065;-63
2022/07/08 13:12:32;;;;;;;3.28;1.05;;;;;;;;;;4965326;28;20055;-63
2022/07/08 13:15:00;;;;;;;4.18;0.98;;;;;;;;;;5006563;28;20108;-63
2022/07/08 13:17:26;;;;;;;5.60;1.20;;;;;;;;;;5006701;28;20045;-66
2022/07/08 13:19:53;;;;;;;3.55;1.10;;;;;;;;;;4988472;28;20117;-64
2022/07/08 13:22:19;;;;;;;5.25;1.20;;;;;;;;;;4988887;28;20066;-66
2022/07/08 13:24:46;;;;;;;2.75;0.93;;;;;;;;;;4985355;28;20054;-65
2022/07/08 13:27:13;;;;;;;2.17;0.95;;;;;;;;;;4990381;28;20085;-67
2022/07/08 13:29:39;;;;;;;5.47;1.30;;;;;;;;;;4985116;28;20059;-65
2022/07/08 13:32:08;;;;;;;3.28;1.20;;;;;;;;;;4991505;28;20054;-67
2022/07/08 13:34:34;;;;;;;4.78;1.00;;;;;;;;;;4981538;28;20120;-64
2022/07/08 13:37:01;;;;;;;6.93;1.30;;;;;;;;;;5011446;28;20046;-68
2022/07/08 13:39:28;;;;;;;7.45;1.48;;;;;;;;;;4986873;28;20089;-64
2022/07/08 13:41:54;;;;;;;5.13;1.15;;;;;;;;;;4978921;28;20105;-64
2022/07/08 13:44:21;;;;;;;5.25;1.20;;;;;;;;;;4971970;28;20061;-63
2022/07/08 13:46:48;;;;;;;3.83;0.80;;;;;;;;;;4989582;28;20058;-67
2022/07/08 13:49:16;;;;;;;3.05;1.10;;;;;;;;;;4984451;28;20092;-65
2022/07/08 13:51:42;;;;;;;3.25;1.00;;;;;;;;;;4989896;28;20065;-65
2022/07/08 13:54:09;;;;;;;4.55;0.80;;;;;;;;;;4994572;28;20082;-65
2022/07/08 13:56:36;;;;;;;4.03;1.10;;;;;;;;;;4989156;28;20077;-63
2022/07/08 13:59:02;;;;;;;4.97;1.00;;;;;;;;;;4989040;28;20050;-65
2022/07/08 14:01:29;;;;;;;3.00;1.08;;;;;;;;;;4984671;28;20050;-65
2022/07/08 14:03:55;;;;;;;2.70;1.00;;;;;;;;;;4987588;28;20051;-65
2022/07/08 14:06:26;;;;;;;9.68;1.27;;;;;;;;;;4996558;28;20116;-67
2022/07/08 14:08:53;;;;;;;3.22;0.90;;;;;;;;;;5026002;28;20056;-67
2022/07/08 14:11:19;;;;;;;2.53;1.00;;;;;;;;;;4986959;28;20058;-67
2022/07/08 14:13:48;;;;;;;3.80;1.10;;;;;;;;;;4989195;28;20046;-65
2022/07/08 14:16:15;;;;;;;5.47;1.10;;;;;;;;;;4980840;28;20100;-62
2022/07/08 14:18:42;;;;;;;1.85;0.85;;;;;;;;;;4989598;28;20105;-63
2022/07/08 14:21:08;;;;;;;3.00;1.08;;;;;;;;;;4983800;28;20054;-64
2022/07/08 14:23:36;;;;;;;7.50;1.80;;;;;;;;;;5007161;28;20113;-63
2022/07/08 14:26:03;;;;;;;2.50;1.10;;;;;;;;;;4992331;28;20128;-65
2022/07/08 14:28:29;;;;;;;3.17;1.10;;;;;;;;;;4970944;28;20062;-69
2022/07/08 14:30:57;;;;;;;4.18;1.25;;;;;;;;;;4973519;28;20058;-63
2022/07/08 14:33:24;;;;;;;7.18;1.25;;;;;;;;;;4975902;28;20197;-67
2022/07/08 14:35:50;;;;;;;4.50;1.00;;;;;;;;;;4993145;28;20057;-67
2022/07/08 14:38:17;;;;;;;1.92;0.80;;;;;;;;;;4982808;28;20051;-67
2022/07/08 14:40:45;;;;;;;1.40;0.90;;;;;;;;;;4973998;28;20054;-65
2022/07/08 14:43:14;;;;;;;4.50;1.08;;;;;;;;;;5006169;28;20056;-67
2022/07/08 14:45:41;;;;;;;3.33;1.10;;;;;;;;;;4969925;28;20060;-64